Time;durP1;ratioP1;P1;durP2;ratioP2;P2;SDS_P1;SDS_P2;PMS_P1;PMS_P2;Temp;Humidity;BMP_temperature;BMP_pressure;BME280_temperature;BME280_humidity;BME280_pressure;Samples;Min_cycle;Max_cycle;Signal;HPM_P1;HPM_P2
2021/03/18 00:02:24;;;;;;;26.10;18.33;;;1.30;91.40;;;;;;5034328;28;20204;-89
2021/03/18 00:04:52;;;;;;;25.90;18.90;;;1.30;91.40;;;;;;5034568;28;20200;-90
2021/03/18 00:07:18;;;;;;;26.00;18.67;;;1.30;91.70;;;;;;5033702;28;20567;-89
2021/03/18 00:09:44;;;;;;;26.10;18.23;;;1.20;91.80;;;;;;5034559;28;20181;-88
2021/03/18 00:12:17;;;;;;;22.33;16.87;;;1.30;91.70;;;;;;5035228;28;20573;-87
2021/03/18 00:14:48;;;;;;;28.60;18.57;;;1.30;91.70;;;;;;5035925;28;20216;-88
2021/03/18 00:17:19;;;;;;;57.00;19.27;;;1.20;91.70;;;;;;5034355;28;20188;-87
2021/03/18 00:19:50;;;;;;;30.37;19.40;;;1.10;91.90;;;;;;5034444;28;20185;-88
2021/03/18 00:22:22;;;;;;;27.67;19.13;;;1.10;92.10;;;;;;5035366;28;20207;-88
2021/03/18 00:24:54;;;;;;;27.57;18.97;;;1.10;92.00;;;;;;5034480;28;20204;-87
2021/03/18 00:27:26;;;;;;;57.50;19.53;;;1.00;92.00;;;;;;5033932;28;20239;-87
2021/03/18 00:29:58;;;;;;;84.57;16.60;;;1.00;91.90;;;;;;5033992;28;20671;-88
2021/03/18 00:32:32;;;;;;;71.40;14.40;;;0.90;91.90;;;;;;5033843;28;20273;-88
2021/03/18 00:35:02;;;;;;;46.43;13.77;;;0.80;92.10;;;;;;5035006;28;20196;-88
2021/03/18 00:37:37;;;;;;;63.50;14.03;;;0.80;92.00;;;;;;5035077;28;20644;-88
2021/03/18 00:40:11;;;;;;;56.77;14.33;;;0.70;92.20;;;;;;5033866;28;20184;-88
2021/03/18 00:43:10;;;;;;;45.63;13.70;;;0.80;92.20;;;;;;5033656;28;20246;-87
2021/03/18 00:45:43;;;;;;;49.33;13.47;;;0.70;92.20;;;;;;5033742;28;20200;-88
2021/03/18 00:48:20;;;;;;;44.60;14.77;;;0.60;92.60;;;;;;5034789;28;20571;-88
2021/03/18 00:50:50;;;;;;;74.33;14.53;;;0.60;92.50;;;;;;5033756;28;20176;-86
2021/03/18 00:53:23;;;;;;;60.40;15.63;;;0.60;92.60;;;;;;5034692;28;20524;-86
2021/03/18 00:55:55;;;;;;;75.20;17.23;;;0.60;92.60;;;;;;5033370;28;20279;-87
2021/03/18 00:58:22;;;;;;;49.80;14.57;;;0.70;92.60;;;;;;5033337;28;20230;-86
2021/03/18 01:00:54;;;;;;;22.70;16.47;;;0.70;92.70;;;;;;5034637;28;20180;-88
2021/03/18 01:03:32;;;;;;;59.53;15.70;;;0.60;92.80;;;;;;5033673;28;20188;-87
2021/03/18 01:06:11;;;;;;;36.43;15.90;;;0.60;92.90;;;;;;5033272;28;20220;-87
2021/03/18 01:08:43;;;;;;;51.60;14.90;;;0.70;92.80;;;;;;5033261;28;20187;-87
2021/03/18 01:11:15;;;;;;;78.80;16.83;;;0.60;93.10;;;;;;5033525;28;20184;-87
2021/03/18 01:13:52;;;;;;;25.80;16.40;;;0.60;93.30;;;;;;5032981;28;20181;-87
2021/03/18 01:16:27;;;;;;;55.17;14.60;;;0.70;93.20;;;;;;5034721;28;20168;-87
2021/03/18 01:19:00;;;;;;;54.33;16.17;;;0.70;93.30;;;;;;5032022;28;20557;-87
2021/03/18 01:21:38;;;;;;;63.73;17.47;;;0.80;93.30;;;;;;5034189;28;20210;-87
2021/03/18 01:24:14;;;;;;;56.07;17.37;;;0.80;93.50;;;;;;5032922;28;20193;-87
2021/03/18 01:26:47;;;;;;;58.00;17.83;;;0.80;93.50;;;;;;5032966;28;20644;-87
2021/03/18 01:29:24;;;;;;;54.07;15.30;;;0.80;93.60;;;;;;5032858;28;20181;-87
2021/03/18 01:31:57;;;;;;;58.90;18.13;;;0.80;93.80;;;;;;5032980;28;20173;-87
2021/03/18 01:34:26;;;;;;;78.33;18.60;;;0.90;93.90;;;;;;5033914;28;20204;-87
2021/03/18 01:36:56;;;;;;;57.37;20.40;;;0.90;93.90;;;;;;5033845;28;20318;-88
2021/03/18 01:39:30;;;;;;;62.73;20.73;;;1.00;94.00;;;;;;5033961;28;20176;-87
2021/03/18 01:42:01;;;;;;;49.03;21.73;;;1.00;94.00;;;;;;5033827;28;20242;-87
2021/03/18 01:44:34;;;;;;;87.17;23.17;;;1.00;93.90;;;;;;5032431;28;20222;-87
2021/03/18 01:47:10;;;;;;;52.67;22.37;;;1.10;93.90;;;;;;5032626;28;20649;-87
2021/03/18 01:49:40;;;;;;;74.80;23.23;;;1.10;93.90;;;;;;5033323;28;20176;-87
2021/03/18 01:52:14;;;;;;;56.37;22.77;;;1.10;93.90;;;;;;5032428;28;20180;-88
2021/03/18 01:54:45;;;;;;;80.50;25.13;;;1.10;93.80;;;;;;5033592;28;20794;-87
2021/03/18 01:57:15;;;;;;;81.03;21.57;;;1.20;93.80;;;;;;5032342;28;20176;-87
2021/03/18 01:59:44;;;;;;;129.80;25.10;;;1.10;93.80;;;;;;5032336;28;20188;-87
2021/03/18 02:02:12;;;;;;;61.77;24.83;;;1.10;93.90;;;;;;5033442;28;20262;-87
2021/03/18 02:04:44;;;;;;;94.83;22.40;;;1.20;94.00;;;;;;5032485;28;20232;-87
2021/03/18 02:07:15;;;;;;;49.57;22.20;;;1.10;93.90;;;;;;5032253;28;20172;-87
2021/03/18 02:09:48;;;;;;;48.67;22.03;;;1.10;94.00;;;;;;5033363;28;20703;-87
2021/03/18 02:12:18;;;;;;;55.27;19.83;;;1.10;93.90;;;;;;5033519;28;20185;-87
2021/03/18 02:14:54;;;;;;;67.60;18.60;;;1.10;93.90;;;;;;5079054;23;20622;-85
2021/03/18 02:17:34;;;;;;;73.63;20.70;;;1.00;94.00;;;;;;5036277;28;20195;-86
2021/03/18 02:20:30;;;;;;;56.23;20.67;;;1.10;94.20;;;;;;5036108;28;20164;-87
2021/03/18 02:23:31;;;;;;;59.60;20.70;;;1.10;94.30;;;;;;5053807;28;20207;-86
2021/03/18 02:26:31;;;;;;;54.40;18.37;;;1.10;94.20;;;;;;5053579;28;20198;-87
2021/03/18 02:29:19;;;;;;;35.17;19.77;;;1.10;94.20;;;;;;5034247;28;20245;-87
2021/03/18 02:32:14;;;;;;;101.77;20.73;;;1.10;94.20;;;;;;5039653;28;20183;-87
2021/03/18 02:35:21;;;;;;;101.10;22.70;;;1.10;94.30;;;;;;5039546;28;20192;-87
2021/03/18 02:38:02;;;;;;;99.40;20.30;;;1.10;94.30;;;;;;5057753;28;20172;-87
2021/03/18 02:40:42;;;;;;;87.10;22.20;;;1.00;94.30;;;;;;5039739;28;20174;-88
2021/03/18 02:43:16;;;;;;;95.00;18.27;;;1.10;94.40;;;;;;5057544;28;20211;-87
2021/03/18 02:45:54;;;;;;;82.40;19.47;;;1.10;94.40;;;;;;5057520;28;20193;-87
2021/03/18 02:48:32;;;;;;;63.57;18.40;;;1.20;94.40;;;;;;5039556;28;20549;-87
2021/03/18 02:51:02;;;;;;;92.93;17.20;;;1.10;94.40;;;;;;5057369;28;20172;-87
2021/03/18 02:53:37;;;;;;;68.33;18.50;;;1.10;94.40;;;;;;5057419;28;20176;-87
2021/03/18 02:56:11;;;;;;;36.47;13.23;;;1.10;94.40;;;;;;5040277;28;20282;-87
2021/03/18 02:58:46;;;;;;;32.63;17.83;;;1.10;94.40;;;;;;5057470;28;20195;-87
2021/03/18 03:01:20;;;;;;;28.40;16.87;;;1.10;94.50;;;;;;5039760;28;20622;-87
2021/03/18 03:03:54;;;;;;;112.13;17.73;;;1.20;94.60;;;;;;5057407;28;20607;-87
2021/03/18 03:06:27;;;;;;;31.90;16.37;;;1.20;94.60;;;;;;5057164;28;20182;-88
2021/03/18 03:08:58;;;;;;;59.63;16.80;;;1.20;94.60;;;;;;5039413;28;20208;-87
2021/03/18 03:11:32;;;;;;;55.10;14.90;;;1.20;94.60;;;;;;5057059;28;20183;-87
2021/03/18 03:14:08;;;;;;;52.67;16.33;;;1.30;94.60;;;;;;5056917;28;20180;-86
2021/03/18 03:16:36;;;;;;;70.60;17.33;;;1.30;94.60;;;;;;5038898;28;20266;-87
2021/03/18 03:19:09;;;;;;;61.87;16.90;;;1.30;94.60;;;;;;5056795;28;20176;-87
2021/03/18 03:21:44;;;;;;;36.73;16.83;;;1.30;94.70;;;;;;5056609;28;20196;-87
2021/03/18 03:24:21;;;;;;;96.37;18.37;;;1.30;94.60;;;;;;5038781;28;20678;-87
2021/03/18 03:26:54;;;;;;;99.33;17.87;;;1.30;94.70;;;;;;5038794;28;20172;-87
2021/03/18 03:29:31;;;;;;;82.87;17.83;;;1.30;94.70;;;;;;5056582;28;20180;-88
2021/03/18 03:32:03;;;;;;;77.13;18.77;;;1.40;94.70;;;;;;5056697;28;20575;-88
2021/03/18 03:34:30;;;;;;;50.97;17.63;;;1.30;94.80;;;;;;5038698;28;20196;-87
2021/03/18 03:37:02;;;;;;;34.93;18.37;;;1.40;94.70;;;;;;5038481;28;20179;-88
2021/03/18 03:39:37;;;;;;;39.67;18.03;;;1.40;94.80;;;;;;5038622;28;20180;-87
2021/03/18 03:42:10;;;;;;;56.07;17.50;;;1.50;94.80;;;;;;5055032;28;20256;-87
2021/03/18 03:44:44;;;;;;;50.97;17.23;;;1.50;94.80;;;;;;5038248;28;20193;-87
2021/03/18 03:47:14;;;;;;;53.77;16.23;;;1.50;94.80;;;;;;5056313;28;20164;-87
2021/03/18 03:49:46;;;;;;;56.33;17.20;;;1.60;94.80;;;;;;5038403;28;20172;-87
2021/03/18 03:52:32;;;;;;;61.73;17.93;;;1.60;94.80;;;;;;5038413;28;20182;-88
2021/03/18 03:55:14;;;;;;;77.30;19.67;;;1.60;94.90;;;;;;5038367;28;20300;-87
2021/03/18 03:58:22;;;;;;;60.00;18.53;;;1.60;94.90;;;;;;5038039;28;20182;-86
2021/03/18 04:00:54;;;;;;;87.47;18.97;;;1.70;94.90;;;;;;5038076;28;20180;-87
2021/03/18 04:03:29;;;;;;;76.40;18.17;;;1.60;95.00;;;;;;5038189;28;20703;-87
2021/03/18 04:06:01;;;;;;;93.47;18.17;;;1.60;95.00;;;;;;5038013;28;20260;-87
2021/03/18 04:08:37;;;;;;;62.47;16.97;;;1.60;95.10;;;;;;5055951;28;20166;-87
2021/03/18 04:11:10;;;;;;;117.47;20.47;;;1.60;95.20;;;;;;5038241;28;20260;-87
2021/03/18 04:13:42;;;;;;;101.87;20.00;;;1.60;95.30;;;;;;5055968;28;20160;-87
2021/03/18 04:16:14;;;;;;;69.23;16.90;;;1.70;95.30;;;;;;5037878;28;20212;-87
2021/03/18 04:18:47;;;;;;;65.93;19.80;;;1.70;95.30;;;;;;5037652;28;20180;-87
2021/03/18 04:21:24;;;;;;;117.63;19.53;;;1.70;95.30;;;;;;5037577;28;20203;-87
2021/03/18 04:24:00;;;;;;;93.63;18.80;;;1.70;95.40;;;;;;5055432;28;20178;-87
2021/03/18 04:26:32;;;;;;;90.87;20.03;;;1.70;95.40;;;;;;5037988;28;20161;-87
2021/03/18 04:29:07;;;;;;;91.60;19.73;;;1.70;95.50;;;;;;5037583;28;20219;-87
2021/03/18 04:31:44;;;;;;;120.57;21.10;;;1.70;95.50;;;;;;5038387;28;20175;-87
2021/03/18 04:34:13;;;;;;;107.90;21.83;;;1.80;95.50;;;;;;5037474;28;20192;-87
2021/03/18 04:36:43;;;;;;;92.93;22.07;;;1.80;95.60;;;;;;5037528;28;20528;-87
2021/03/18 04:39:18;;;;;;;91.23;22.87;;;1.80;95.60;;;;;;5055289;28;20263;-87
2021/03/18 04:41:54;;;;;;;100.63;21.10;;;1.80;95.60;;;;;;5037160;28;20203;-87
2021/03/18 04:44:24;;;;;;;100.83;21.37;;;1.80;95.60;;;;;;5055083;28;20180;-87
2021/03/18 04:46:56;;;;;;;88.40;22.13;;;1.90;95.60;;;;;;5055185;28;20180;-87
2021/03/18 04:49:26;;;;;;;77.60;21.83;;;1.90;95.60;;;;;;5037381;28;20208;-88
2021/03/18 04:51:57;;;;;;;81.53;21.60;;;2.00;95.60;;;;;;5036872;28;20185;-88
2021/03/18 04:54:32;;;;;;;89.77;22.53;;;2.00;95.60;;;;;;5037004;28;20296;-87
2021/03/18 04:57:03;;;;;;;88.50;22.87;;;2.00;95.60;;;;;;5054987;28;20160;-87
2021/03/18 04:59:39;;;;;;;89.17;22.87;;;1.90;95.60;;;;;;5036972;28;20668;-87
2021/03/18 05:02:14;;;;;;;70.43;21.10;;;2.00;95.70;;;;;;5036779;28;20747;-87
2021/03/18 05:04:52;;;;;;;96.33;21.73;;;2.00;95.70;;;;;;5036601;28;20574;-87
2021/03/18 05:07:23;;;;;;;118.20;22.93;;;2.00;95.70;;;;;;5036728;28;20176;-87
2021/03/18 05:09:56;;;;;;;149.30;22.17;;;1.90;95.70;;;;;;5036705;28;20178;-87
2021/03/18 05:12:28;;;;;;;113.00;25.43;;;2.00;95.70;;;;;;5036582;28;20230;-87
2021/03/18 05:14:58;;;;;;;117.53;22.73;;;2.00;95.70;;;;;;5036610;28;20218;-87
2021/03/18 05:17:32;;;;;;;130.00;21.57;;;2.00;95.80;;;;;;5054421;28;20226;-88
2021/03/18 05:20:04;;;;;;;122.63;19.60;;;1.90;95.80;;;;;;5036888;28;20176;-87
2021/03/18 05:22:41;;;;;;;128.07;21.13;;;2.00;95.80;;;;;;5036496;28;20211;-88
2021/03/18 05:25:15;;;;;;;163.37;23.53;;;2.00;95.80;;;;;;5036444;28;20756;-88
2021/03/18 05:27:49;;;;;;;98.30;19.50;;;2.00;95.80;;;;;;5036537;28;20221;-87
2021/03/18 05:30:21;;;;;;;119.40;21.67;;;2.00;95.80;;;;;;5054418;28;20156;-87
2021/03/18 05:32:53;;;;;;;129.07;21.43;;;2.00;95.80;;;;;;5054137;28;20176;-88
2021/03/18 05:35:26;;;;;;;83.37;20.20;;;2.00;95.80;;;;;;5053894;28;20191;-87
2021/03/18 05:38:04;;;;;;;149.30;21.27;;;2.10;95.80;;;;;;5036207;28;20547;-88
2021/03/18 05:40:39;;;;;;;65.43;19.70;;;2.10;95.80;;;;;;5036168;28;20566;-87
2021/03/18 05:43:12;;;;;;;149.03;21.30;;;2.10;95.90;;;;;;5035980;28;20671;-87
2021/03/18 05:45:41;;;;;;;162.13;22.67;;;2.00;95.80;;;;;;5036027;28;20202;-87
2021/03/18 05:48:15;;;;;;;137.70;24.07;;;2.00;95.80;;;;;;5053817;28;20166;-87
2021/03/18 05:50:48;;;;;;;139.60;22.57;;;2.10;95.90;;;;;;5036391;28;20261;-87
2021/03/18 05:53:22;;;;;;;173.30;23.57;;;2.10;95.90;;;;;;5054045;28;20603;-87
2021/03/18 05:55:52;;;;;;;85.10;22.23;;;2.10;95.90;;;;;;5053812;28;20184;-87
2021/03/18 05:58:29;;;;;;;76.30;21.10;;;2.10;95.90;;;;;;5036053;28;20228;-87
2021/03/18 06:01:00;;;;;;;91.33;21.27;;;2.20;95.90;;;;;;5035969;28;20169;-87
2021/03/18 06:03:32;;;;;;;73.50;20.17;;;2.10;95.90;;;;;;5036257;28;20630;-87
2021/03/18 06:06:04;;;;;;;128.00;24.37;;;2.20;95.90;;;;;;5053539;28;20192;-87
2021/03/18 06:08:34;;;;;;;141.73;23.87;;;2.20;95.90;;;;;;5053637;28;20249;-87
2021/03/18 06:11:04;;;;;;;105.87;20.73;;;2.20;95.90;;;;;;5035775;28;20199;-87
2021/03/18 06:13:40;;;;;;;90.00;19.60;;;2.20;95.90;;;;;;5053606;28;20252;-87
2021/03/18 06:16:11;;;;;;;106.13;21.17;;;2.20;95.80;;;;;;5035835;28;20239;-87
2021/03/18 06:18:37;;;;;;;58.50;20.33;;;2.20;95.90;;;;;;5053765;28;20155;-87
2021/03/18 06:21:05;;;;;;;94.57;19.33;;;2.20;95.80;;;;;;5035551;28;20176;-88
2021/03/18 06:23:35;;;;;;;93.93;19.43;;;2.30;95.80;;;;;;5035606;28;20176;-88
2021/03/18 06:26:10;;;;;;;120.17;19.97;;;2.30;95.80;;;;;;5035712;28;20188;-87
2021/03/18 06:28:46;;;;;;;136.33;21.67;;;2.30;95.70;;;;;;5035906;28;20178;-87
2021/03/18 06:31:18;;;;;;;66.80;18.33;;;2.30;95.70;;;;;;5035597;28;20644;-88
2021/03/18 06:33:50;;;;;;;87.33;19.70;;;2.30;95.70;;;;;;5053341;28;20190;-87
2021/03/18 06:36:32;;;;;;;67.47;18.63;;;2.30;95.70;;;;;;5035581;28;20724;-87
2021/03/18 06:39:17;;;;;;;63.97;18.03;;;2.40;95.70;;;;;;5035951;28;20262;-88
2021/03/18 06:42:02;;;;;;;58.50;17.07;;;2.40;95.60;;;;;;5053461;28;20197;-88
2021/03/18 06:44:38;;;;;;;95.97;16.97;;;2.40;95.60;;;;;;5053331;28;20749;-88
2021/03/18 06:47:14;;;;;;;54.33;16.60;;;2.40;95.60;;;;;;5053325;28;20513;-88
2021/03/18 06:50:02;;;;;;;71.63;15.80;;;2.40;95.50;;;;;;5053676;28;20698;-88
2021/03/18 06:52:36;;;;;;;52.40;15.67;;;2.50;95.50;;;;;;5036085;28;20169;-88
2021/03/18 06:55:07;;;;;;;55.17;15.50;;;2.40;95.50;;;;;;5035660;28;20224;-88
2021/03/18 06:57:36;;;;;;;55.67;14.40;;;2.40;95.50;;;;;;5035884;28;20179;-87
2021/03/18 07:00:11;;;;;;;47.93;14.43;;;2.50;95.50;;;;;;5053751;28;20660;-88
2021/03/18 07:02:48;;;;;;;79.93;15.10;;;2.60;95.50;;;;;;5035476;28;20210;-88
2021/03/18 07:05:22;;;;;;;49.43;15.00;;;2.50;95.40;;;;;;5053140;28;20188;-88
2021/03/18 07:07:56;;;;;;;39.63;15.03;;;2.50;95.40;;;;;;5035121;28;20254;-87
2021/03/18 07:10:40;;;;;;;41.00;13.77;;;2.60;95.40;;;;;;5053349;28;20651;-87
2021/03/18 07:13:17;;;;;;;42.17;14.13;;;2.60;95.30;;;;;;5053781;28;20544;-88
2021/03/18 07:15:53;;;;;;;83.07;13.73;;;2.60;95.30;;;;;;5036880;28;20223;-87
2021/03/18 07:18:19;;;;;;;73.50;16.27;;;2.50;95.30;;;;;;5057076;28;20566;-87
2021/03/18 07:20:59;;;;;;;61.40;14.77;;;2.50;95.40;;;;;;5038991;28;20184;-87
2021/03/18 07:23:46;;;;;;;50.27;14.67;;;2.50;95.40;;;;;;5038739;28;20183;-88
2021/03/18 07:26:24;;;;;;;62.57;13.20;;;2.60;95.50;;;;;;5038633;28;20191;-87
2021/03/18 07:29:13;;;;;;;40.20;14.30;;;2.60;95.50;;;;;;5056743;28;20176;-87
2021/03/18 07:31:44;;;;;;;43.53;13.60;;;2.70;95.50;;;;;;5056620;28;20192;-88
2021/03/18 07:34:20;;;;;;;71.37;12.90;;;2.70;95.40;;;;;;5056609;28;20259;-87
2021/03/18 07:36:56;;;;;;;43.60;13.27;;;2.70;95.40;;;;;;5039123;28;20237;-88
2021/03/18 07:39:27;;;;;;;30.60;11.47;;;2.70;95.30;;;;;;5038901;28;20207;-87
2021/03/18 07:42:04;;;;;;;31.13;12.77;;;2.80;95.30;;;;;;5038799;28;20228;-87
2021/03/18 07:44:33;;;;;;;54.50;11.97;;;2.80;95.30;;;;;;5038411;28;20194;-87
2021/03/18 07:47:07;;;;;;;33.37;11.73;;;2.70;95.30;;;;;;5056852;28;20172;-88
2021/03/18 07:49:43;;;;;;;35.80;11.93;;;2.80;95.30;;;;;;5039035;28;20173;-88
2021/03/18 07:52:19;;;;;;;37.47;11.17;;;2.90;95.30;;;;;;5039099;28;20182;-88
2021/03/18 07:54:48;;;;;;;36.07;11.80;;;2.90;95.20;;;;;;5057626;28;20203;-88
2021/03/18 07:57:23;;;;;;;30.40;12.30;;;2.90;95.30;;;;;;5039186;28;20189;-88
2021/03/18 08:00:07;;;;;;;26.43;12.07;;;3.00;95.30;;;;;;5038534;28;20179;-89
2021/03/18 08:02:41;;;;;;;29.67;11.07;;;3.10;95.30;;;;;;5038773;28;20550;-88
2021/03/18 08:05:34;;;;;;;26.77;11.47;;;3.20;95.20;;;;;;5038913;28;20203;-88
2021/03/18 08:08:09;;;;;;;25.90;12.17;;;3.10;95.20;;;;;;5056657;28;20178;-88
2021/03/18 08:10:46;;;;;;;30.83;12.67;;;3.30;95.20;;;;;;5038785;28;20329;-88
2021/03/18 08:13:36;;;;;;;30.67;15.80;;;3.40;95.10;;;;;;5039896;28;20182;-88
2021/03/18 08:16:29;;;;;;;29.33;14.10;;;3.50;95.10;;;;;;5078066;23;20235;-90
2021/03/18 08:18:57;;;;;;;23.50;12.63;;;3.60;95.10;;;;;;5037399;28;20544;-89
2021/03/18 08:21:39;;;;;;;28.30;12.23;;;3.70;94.80;;;;;;5055134;28;20683;-89
2021/03/18 08:24:17;;;;;;;30.77;12.27;;;3.70;94.70;;;;;;5037388;28;20564;-89
2021/03/18 08:26:58;;;;;;;29.00;12.63;;;3.80;94.60;;;;;;5036944;28;20224;-88
2021/03/18 08:29:44;;;;;;;21.83;12.03;;;3.70;94.00;;;;;;5037297;28;20170;-89
2021/03/18 08:32:25;;;;;;;22.77;14.17;;;3.80;93.90;;;;;;5037197;28;20193;-89
2021/03/18 08:35:02;;;;;;;24.37;14.63;;;3.80;93.90;;;;;;5055035;28;20257;-89
2021/03/18 08:37:51;;;;;;;28.10;16.13;;;3.90;93.90;;;;;;5037711;28;20273;-89
2021/03/18 08:40:23;;;;;;;19.63;13.33;;;4.00;93.90;;;;;;5037975;28;20538;-90
2021/03/18 08:42:51;;;;;;;20.67;13.53;;;4.00;93.30;;;;;;5036859;28;20198;-90
2021/03/18 08:45:25;;;;;;;21.03;12.40;;;4.00;93.10;;;;;;5054848;28;20210;-89
2021/03/18 08:48:09;;;;;;;20.23;12.93;;;4.00;93.00;;;;;;5036917;28;20197;-90
2021/03/18 08:50:38;;;;;;;25.70;13.20;;;4.20;93.20;;;;;;5037034;28;20172;-90
2021/03/18 08:53:28;;;;;;;23.47;12.97;;;4.30;93.20;;;;;;5055007;28;20182;-90
2021/03/18 08:55:55;;;;;;;19.70;13.10;;;4.30;92.70;;;;;;5036841;28;20202;-90
2021/03/18 08:58:21;;;;;;;22.73;14.07;;;4.30;92.30;;;;;;5036896;28;20201;-90
2021/03/18 09:00:50;;;;;;;15.23;10.90;;;4.40;92.60;;;;;;5037635;28;20659;-90
2021/03/18 09:03:18;;;;;;;18.57;10.50;;;4.30;92.00;;;;;;5036698;28;20186;-90
2021/03/18 09:05:56;;;;;;;22.53;10.40;;;4.30;92.00;;;;;;5054326;28;20202;-90
2021/03/18 09:08:24;;;;;;;18.77;10.60;;;4.40;91.80;;;;;;5036856;28;20176;-90
2021/03/18 09:10:51;;;;;;;17.40;9.83;;;4.50;92.00;;;;;;5054240;28;20183;-90
2021/03/18 09:13:22;;;;;;;18.47;10.00;;;4.60;92.00;;;;;;5036441;28;20186;-90
2021/03/18 09:15:52;;;;;;;18.97;9.17;;;4.60;91.00;;;;;;5054380;28;20285;-90
2021/03/18 09:18:24;;;;;;;20.63;10.43;;;4.80;91.20;;;;;;5054234;28;20176;-90
2021/03/18 09:21:12;;;;;;;15.73;9.30;;;4.90;91.00;;;;;;5036583;28;20254;-90
2021/03/18 09:23:40;;;;;;;10.07;8.30;;;5.00;90.60;;;;;;5036504;28;20187;-90
2021/03/18 09:26:10;;;;;;;12.07;7.70;;;5.10;90.30;;;;;;5036073;28;20202;-90
2021/03/18 09:28:56;;;;;;;15.77;8.73;;;5.20;89.70;;;;;;5036588;28;20172;-90
2021/03/18 09:31:25;;;;;;;14.47;9.23;;;5.20;89.20;;;;;;5036175;28;20176;-90
2021/03/18 09:33:54;;;;;;;13.07;8.57;;;5.30;89.30;;;;;;5036197;28;20192;-90
2021/03/18 09:36:24;;;;;;;17.10;9.37;;;5.30;88.00;;;;;;5035922;28;20280;-90
2021/03/18 09:39:09;;;;;;;12.10;7.77;;;5.40;89.00;;;;;;5035692;28;20713;-90
2021/03/18 09:41:49;;;;;;;12.00;7.40;;;5.40;87.60;;;;;;5035949;28;20196;-90
2021/03/18 09:44:17;;;;;;;12.67;6.83;;;5.70;88.10;;;;;;5053851;28;20168;-90
2021/03/18 09:47:04;;;;;;;8.87;6.93;;;5.70;87.60;;;;;;5035934;28;20656;-90
2021/03/18 09:49:39;;;;;;;15.73;6.90;;;5.80;86.90;;;;;;5035704;28;20181;-90
2021/03/18 09:52:22;;;;;;;9.90;7.50;;;5.40;85.60;;;;;;5035837;28;20180;-90
2021/03/18 09:54:48;;;;;;;25.00;9.00;;;5.70;87.10;;;;;;5035695;28;20579;-91
2021/03/18 09:57:16;;;;;;;12.03;7.27;;;5.90;86.50;;;;;;5035682;28;20187;-90
2021/03/18 09:59:49;;;;;;;16.27;7.07;;;5.80;85.00;;;;;;5035689;28;20178;-90
2021/03/18 10:02:18;;;;;;;16.07;7.53;;;5.90;85.20;;;;;;5053421;28;20235;-91
2021/03/18 10:04:45;;;;;;;19.07;7.10;;;6.00;85.30;;;;;;5035991;28;20704;-90
2021/03/18 10:07:12;;;;;;;11.97;6.97;;;6.30;85.50;;;;;;5035933;28;20530;-90
2021/03/18 10:09:45;;;;;;;10.40;6.73;;;6.20;83.90;;;;;;5053413;28;20181;-91
2021/03/18 10:12:18;;;;;;;8.90;6.00;;;6.30;83.30;;;;;;5036604;28;20177;-90
2021/03/18 10:15:02;;;;;;;8.27;5.83;;;6.20;82.00;;;;;;5035433;28;20173;-88
2021/03/18 10:17:41;;;;;;;11.87;5.47;;;6.20;82.60;;;;;;5035723;28;20184;-89
2021/03/18 10:20:20;;;;;;;11.73;8.83;;;6.30;82.80;;;;;;5035552;28;20234;-90
2021/03/18 10:23:01;;;;;;;15.70;8.73;;;6.50;83.90;;;;;;5035370;28;20200;-90
2021/03/18 10:25:31;;;;;;;17.60;11.27;;;6.30;83.10;;;;;;5035374;28;20193;-91
2021/03/18 10:28:14;;;;;;;16.10;10.37;;;6.50;84.60;;;;;;5053260;28;20170;-91
2021/03/18 10:30:44;;;;;;;26.93;10.93;;;6.30;83.50;;;;;;5053510;28;20174;-90
2021/03/18 10:33:23;;;;;;;15.50;11.00;;;6.10;83.90;;;;;;5035336;28;20267;-90
2021/03/18 10:35:59;;;;;;;18.77;10.43;;;6.00;84.10;;;;;;5036390;28;20545;-90
2021/03/18 10:38:30;;;;;;;21.37;10.20;;;5.90;84.50;;;;;;5035631;28;20173;-91
2021/03/18 10:41:03;;;;;;;14.47;8.07;;;5.90;84.40;;;;;;5035103;28;20187;-90
2021/03/18 10:43:32;;;;;;;12.27;6.70;;;5.90;84.10;;;;;;5035771;28;20522;-90
2021/03/18 10:46:04;;;;;;;12.13;7.60;;;5.60;84.90;;;;;;5053000;28;20189;-90
2021/03/18 10:48:35;;;;;;;11.37;7.30;;;5.40;86.10;;;;;;5035250;28;20255;-90
2021/03/18 10:51:04;;;;;;;12.17;7.43;;;5.30;85.80;;;;;;5037658;28;20243;-89
2021/03/18 10:53:34;;;;;;;12.87;8.60;;;5.30;85.40;;;;;;5057234;28;20160;-87
2021/03/18 10:56:03;;;;;;;11.93;7.73;;;5.30;85.90;;;;;;5039367;28;20196;-88
2021/03/18 10:58:29;;;;;;;10.87;7.57;;;5.50;86.10;;;;;;5056922;28;20168;-87
2021/03/18 11:01:05;;;;;;;9.03;7.13;;;6.00;85.20;;;;;;5039116;28;20663;-86
2021/03/18 11:03:38;;;;;;;16.13;7.50;;;6.00;83.40;;;;;;5039071;28;20257;-90
2021/03/18 11:06:21;;;;;;;12.33;7.30;;;6.30;83.10;;;;;;5039022;28;20212;-90
2021/03/18 11:08:52;;;;;;;10.10;6.87;;;6.60;83.50;;;;;;5038831;28;20239;-90
2021/03/18 11:11:26;;;;;;;11.67;7.07;;;6.80;80.60;;;;;;5038872;28;20178;-91
2021/03/18 11:14:08;;;;;;;8.93;6.77;;;7.00;80.50;;;;;;5056969;28;20248;-90
2021/03/18 11:16:35;;;;;;;8.10;5.97;;;7.20;81.20;;;;;;5038524;28;20305;-90
2021/03/18 11:19:06;;;;;;;11.63;7.00;;;7.50;80.10;;;;;;5056457;28;20187;-90
2021/03/18 11:21:35;;;;;;;8.03;5.70;;;7.60;77.90;;;;;;5038605;28;20207;-90
2021/03/18 11:24:11;;;;;;;8.67;5.13;;;7.40;77.40;;;;;;5056439;28;20258;-90
2021/03/18 11:26:54;;;;;;;7.73;4.93;;;7.40;76.50;;;;;;5056266;28;20192;-90
2021/03/18 11:29:27;;;;;;;6.30;5.17;;;7.30;76.00;;;;;;5038414;28;20163;-90
2021/03/18 11:31:57;;;;;;;10.27;6.03;;;7.50;78.10;;;;;;5056358;28;20170;-90
2021/03/18 11:34:32;;;;;;;10.67;5.93;;;7.50;76.00;;;;;;5056323;28;20179;-91
2021/03/18 11:37:08;;;;;;;6.67;5.53;;;7.80;77.80;;;;;;5039103;28;20178;-91
2021/03/18 11:39:42;;;;;;;10.17;4.57;;;8.00;75.80;;;;;;5038476;28;20241;-90
2021/03/18 11:42:12;;;;;;;10.80;5.57;;;8.10;74.90;;;;;;5056096;28;20202;-88
2021/03/18 11:44:44;;;;;;;5.97;4.70;;;8.10;73.40;;;;;;5055774;28;20183;-88
2021/03/18 11:47:20;;;;;;;6.10;4.10;;;8.10;74.30;;;;;;5055848;28;20183;-88
2021/03/18 11:49:49;;;;;;;7.43;4.33;;;8.00;73.20;;;;;;5038640;28;20171;-88
2021/03/18 11:52:15;;;;;;;7.43;4.47;;;7.80;72.50;;;;;;5055799;28;20526;-88
2021/03/18 11:54:44;;;;;;;10.90;4.00;;;7.70;71.10;;;;;;5055585;28;20175;-88
2021/03/18 11:57:14;;;;;;;8.37;3.43;;;7.80;72.20;;;;;;5037705;28;20176;-89
2021/03/18 11:59:40;;;;;;;7.17;3.40;;;7.80;70.20;;;;;;5037672;28;20182;-89
2021/03/18 12:02:12;;;;;;;5.43;3.37;;;8.20;71.40;;;;;;5037196;28;20196;-91
2021/03/18 12:04:47;;;;;;;6.20;4.23;;;8.40;69.80;;;;;;5037966;28;20180;-89
2021/03/18 12:07:22;;;;;;;12.30;4.40;;;8.60;70.20;;;;;;5037744;28;20178;-90
2021/03/18 12:09:58;;;;;;;4.53;3.50;;;8.60;68.70;;;;;;5055791;28;20164;-89
2021/03/18 12:12:31;;;;;;;7.03;3.53;;;8.40;65.70;;;;;;5055501;28;20172;-88
2021/03/18 12:14:57;;;;;;;5.17;3.20;;;8.30;68.90;;;;;;5055183;28;20294;-89
2021/03/18 12:17:29;;;;;;;3.23;1.90;;;8.60;67.10;;;;;;5037866;28;20215;-90
2021/03/18 12:20:02;;;;;;;4.13;1.97;;;8.80;62.40;;;;;;5055574;28;20647;-90
2021/03/18 12:22:37;;;;;;;5.00;2.33;;;8.70;61.00;;;;;;5055412;28;20192;-90
2021/03/18 12:25:09;;;;;;;4.90;2.33;;;8.60;60.10;;;;;;5055277;28;20183;-90
2021/03/18 12:27:40;;;;;;;4.10;2.37;;;8.30;63.00;;;;;;5037232;28;20225;-89
2021/03/18 12:30:16;;;;;;;11.20;3.20;;;8.30;64.70;;;;;;5055295;28;20172;-91
2021/03/18 12:32:49;;;;;;;8.53;3.53;;;8.20;63.60;;;;;;5038291;28;20171;-90
2021/03/18 12:35:24;;;;;;;6.73;2.90;;;8.10;62.80;;;;;;5055050;28;20570;-91
2021/03/18 12:37:55;;;;;;;9.27;3.57;;;8.00;63.70;;;;;;5055113;28;20171;-92
2021/03/18 12:40:28;;;;;;;5.37;3.20;;;7.90;66.40;;;;;;5055399;28;20172;-92
2021/03/18 12:43:01;;;;;;;5.30;2.70;;;7.80;67.80;;;;;;5037350;28;20211;-92
2021/03/18 12:45:33;;;;;;;7.37;2.87;;;7.90;67.30;;;;;;5055225;28;20207;-92
2021/03/18 12:48:03;;;;;;;5.40;2.60;;;7.80;65.70;;;;;;5055584;28;20195;-91
2021/03/18 12:50:37;;;;;;;3.20;2.00;;;7.70;64.10;;;;;;5054998;28;20554;-91
2021/03/18 12:53:05;;;;;;;6.97;2.20;;;7.70;64.10;;;;;;5036964;28;20666;-92
2021/03/18 12:55:35;;;;;;;7.23;2.33;;;7.60;63.50;;;;;;5054703;28;20192;-91
2021/03/18 12:58:08;;;;;;;5.13;2.23;;;7.50;62.10;;;;;;5054977;28;20172;-91
2021/03/18 13:00:43;;;;;;;5.03;1.83;;;7.40;61.60;;;;;;5055074;28;20191;-91
2021/03/18 13:03:14;;;;;;;8.67;2.07;;;7.10;61.80;;;;;;5036918;28;20206;-91
2021/03/18 13:05:45;;;;;;;4.70;2.10;;;7.20;64.20;;;;;;5054744;28;20196;-91
2021/03/18 13:08:19;;;;;;;4.40;2.40;;;7.30;64.60;;;;;;5054383;28;20176;-92
2021/03/18 13:10:46;;;;;;;4.63;2.27;;;7.40;65.30;;;;;;5037267;28;20187;-92
2021/03/18 13:13:12;;;;;;;4.03;2.03;;;7.50;64.90;;;;;;5054209;28;20648;-91
2021/03/18 13:15:38;;;;;;;7.00;2.00;;;7.40;62.80;;;;;;5054294;28;20212;-91
2021/03/18 13:18:08;;;;;;;3.80;2.03;;;7.30;63.70;;;;;;5054780;28;20266;-91